Time;durP1;ratioP1;P1;durP2;ratioP2;P2;SDS_P1;SDS_P2;PMS_P1;PMS_P2;Temp;Humidity;BMP_temperature;BMP_pressure;BME280_temperature;BME280_humidity;BME280_pressure;Samples;Min_cycle;Max_cycle;Signal;HPM_P1;HPM_P2
2021/05/20 00:00:23;;;;;;;7.88;3.78;;;13.80;77.00;;;;;;5067702;28;20511;-65
2021/05/20 00:02:52;;;;;;;9.40;3.35;;;14.00;75.40;;;;;;5062861;28;20020;-65
2021/05/20 00:05:19;;;;;;;7.28;3.50;;;14.20;74.30;;;;;;5063243;28;20549;-65
2021/05/20 00:07:47;;;;;;;7.70;3.85;;;14.20;75.40;;;;;;5066883;28;20488;-64
2021/05/20 00:10:16;;;;;;;10.25;3.85;;;14.50;72.00;;;;;;5066791;28;20401;-72
2021/05/20 00:12:45;;;;;;;14.10;3.88;;;14.60;72.10;;;;;;5064074;28;20029;-62
2021/05/20 00:15:14;;;;;;;9.57;3.53;;;14.70;71.80;;;;;;5044646;28;20024;-68
2021/05/20 00:17:41;;;;;;;6.07;4.25;;;14.90;70.60;;;;;;5065558;28;20023;-69
2021/05/20 00:20:09;;;;;;;8.80;3.70;;;15.00;68.80;;;;;;5065895;28;20059;-63
2021/05/20 00:22:37;;;;;;;5.95;2.47;;;15.20;68.30;;;;;;5061103;28;20028;-69
2021/05/20 00:25:05;;;;;;;7.30;4.00;;;15.40;69.10;;;;;;5048106;28;20027;-63
2021/05/20 00:27:33;;;;;;;7.85;2.97;;;15.70;67.90;;;;;;5065167;28;20020;-72
2021/05/20 00:30:00;;;;;;;6.65;3.47;;;15.90;65.40;;;;;;5067132;28;20056;-70
2021/05/20 00:32:29;;;;;;;5.80;2.25;;;16.00;63.60;;;;;;5066256;28;20495;-68
2021/05/20 00:34:56;;;;;;;7.75;2.80;;;16.20;62.10;;;;;;5066086;28;20028;-61
2021/05/20 00:37:23;;;;;;;7.53;2.88;;;16.20;64.80;;;;;;5065116;28;20021;-63
2021/05/20 00:39:52;;;;;;;9.93;3.05;;;16.40;62.80;;;;;;5063866;28;20089;-71
2021/05/20 00:42:23;;;;;;;6.47;3.10;;;16.50;65.30;;;;;;5065851;28;20020;-64
2021/05/20 00:44:56;;;;;;;9.18;3.30;;;16.70;63.90;;;;;;5068035;28;20020;-63
2021/05/20 00:47:31;;;;;;;8.93;3.38;;;16.90;60.90;;;;;;5065692;28;20032;-72
2021/05/20 00:50:05;;;;;;;12.10;4.30;;;17.00;61.30;;;;;;5063629;28;20036;-64
2021/05/20 00:52:33;;;;;;;12.80;3.70;;;17.10;62.60;;;;;;5063351;28;20021;-62
2021/05/20 00:55:03;;;;;;;7.38;3.58;;;17.30;59.70;;;;;;5066333;28;20043;-62
2021/05/20 00:57:30;;;;;;;18.10;4.00;;;17.40;60.50;;;;;;5065819;28;20328;-67
2021/05/20 01:00:07;;;;;;;6.03;3.17;;;17.50;59.30;;;;;;5065447;28;20035;-67
2021/05/20 01:02:37;;;;;;;8.40;3.45;;;17.40;59.80;;;;;;5047150;28;20032;-69
2021/05/20 01:05:07;;;;;;;4.65;2.75;;;17.50;59.10;;;;;;5064439;28;20031;-63
2021/05/20 01:07:35;;;;;;;4.30;2.58;;;17.50;58.90;;;;;;5064656;28;20017;-69
2021/05/20 01:10:04;;;;;;;8.80;3.22;;;17.60;60.10;;;;;;5065742;28;20479;-62
2021/05/20 01:12:32;;;;;;;8.88;3.75;;;17.80;59.20;;;;;;5060979;28;20055;-69
2021/05/20 01:15:00;;;;;;;5.50;3.15;;;18.00;57.50;;;;;;5067304;28;20052;-64
2021/05/20 01:17:28;;;;;;;5.13;2.38;;;18.00;59.00;;;;;;5066136;28;20111;-71
2021/05/20 01:19:55;;;;;;;12.75;3.83;;;18.00;58.30;;;;;;5064920;28;20051;-69
2021/05/20 01:22:23;;;;;;;12.32;4.35;;;18.10;58.30;;;;;;5065361;28;20024;-69
2021/05/20 01:24:50;;;;;;;5.53;2.60;;;18.20;57.90;;;;;;5066574;28;20028;-64
2021/05/20 01:27:18;;;;;;;8.13;2.97;;;18.40;57.70;;;;;;5065565;28;20142;-64
2021/05/20 01:29:45;;;;;;;6.53;3.00;;;18.60;57.10;;;;;;5065515;28;20418;-70
2021/05/20 01:32:13;;;;;;;9.15;3.10;;;18.90;56.60;;;;;;5062854;28;20028;-65
2021/05/20 01:34:40;;;;;;;14.73;3.38;;;19.00;56.00;;;;;;5065348;28;20031;-64
2021/05/20 01:37:09;;;;;;;10.77;3.40;;;19.20;55.60;;;;;;5065371;28;20393;-69
2021/05/20 01:39:38;;;;;;;10.38;2.95;;;19.30;55.00;;;;;;5065112;28;20056;-62
2021/05/20 01:42:05;;;;;;;10.77;3.00;;;19.20;54.40;;;;;;5066147;28;20029;-62
2021/05/20 01:44:33;;;;;;;9.02;3.72;;;19.40;55.30;;;;;;5064341;28;20099;-70
2021/05/20 01:47:01;;;;;;;11.20;3.45;;;19.50;53.80;;;;;;5064132;28;20564;-71
2021/05/20 01:49:28;;;;;;;10.63;4.20;;;19.70;52.10;;;;;;5065263;28;20021;-69
2021/05/20 01:51:55;;;;;;;7.45;3.75;;;19.70;53.80;;;;;;5062890;28;20476;-69
2021/05/20 01:54:23;;;;;;;8.18;2.90;;;19.80;52.10;;;;;;5064036;28;20028;-68
2021/05/20 01:56:50;;;;;;;12.02;3.63;;;19.90;53.80;;;;;;5063217;28;20028;-71
2021/05/20 01:59:17;;;;;;;5.95;2.95;;;20.10;53.70;;;;;;5064663;28;20051;-69
2021/05/20 02:01:45;;;;;;;12.38;3.08;;;20.40;52.10;;;;;;5064933;28;20527;-63
2021/05/20 02:04:12;;;;;;;6.80;2.70;;;20.60;52.90;;;;;;5063813;28;20356;-67
2021/05/20 02:06:39;;;;;;;8.43;2.17;;;20.70;52.50;;;;;;5065190;28;20027;-66
2021/05/20 02:09:07;;;;;;;9.02;3.28;;;20.80;51.40;;;;;;5063210;28;20492;-69
2021/05/20 02:11:34;;;;;;;9.48;3.30;;;20.90;51.10;;;;;;5062359;28;20431;-64
2021/05/20 02:14:02;;;;;;;8.27;2.72;;;21.00;50.30;;;;;;5062412;28;20036;-64
2021/05/20 02:16:29;;;;;;;9.75;3.05;;;21.00;49.00;;;;;;5063966;28;20047;-70
2021/05/20 02:18:57;;;;;;;5.30;2.50;;;21.10;49.50;;;;;;5063155;22;20056;-63
2021/05/20 02:21:24;;;;;;;8.88;2.50;;;20.90;50.50;;;;;;5044832;28;20035;-64
2021/05/20 02:23:52;;;;;;;16.15;9.88;;;20.90;49.80;;;;;;5046016;28;20159;-70
2021/05/20 02:26:19;;;;;;;6.45;3.00;;;21.00;51.80;;;;;;5045046;28;20025;-70
2021/05/20 02:28:46;;;;;;;12.65;3.33;;;21.10;48.90;;;;;;5043853;28;20021;-70
2021/05/20 02:31:14;;;;;;;9.75;2.45;;;21.30;47.90;;;;;;5043930;28;20082;-66
2021/05/20 02:33:41;;;;;;;5.50;2.67;;;21.30;47.90;;;;;;5044414;28;20029;-64
2021/05/20 02:36:11;;;;;;;8.77;2.67;;;21.30;49.40;;;;;;5045838;28;20634;-70
2021/05/20 02:38:38;;;;;;;6.82;2.83;;;21.10;49.80;;;;;;5042868;28;20406;-70
2021/05/20 02:41:06;;;;;;;5.50;2.95;;;21.10;50.00;;;;;;5045362;28;20456;-67
2021/05/20 02:43:33;;;;;;;5.18;2.25;;;21.10;49.20;;;;;;5044042;28;20112;-64
2021/05/20 02:46:03;;;;;;;4.32;2.05;;;21.20;51.30;;;;;;5075349;28;20607;-64
2021/05/20 02:48:31;;;;;;;5.88;2.58;;;21.10;49.40;;;;;;5043727;28;20021;-62
2021/05/20 02:50:58;;;;;;;6.38;2.80;;;21.30;51.10;;;;;;5043417;28;20083;-70
2021/05/20 02:53:26;;;;;;;4.95;1.75;;;21.60;50.00;;;;;;5042672;28;20061;-63
2021/05/20 02:55:53;;;;;;;6.90;2.17;;;21.70;48.40;;;;;;5042090;28;20040;-70
2021/05/20 02:58:22;;;;;;;3.30;1.88;;;21.90;48.50;;;;;;5044213;28;20052;-75
2021/05/20 03:00:49;;;;;;;5.40;2.30;;;22.10;46.70;;;;;;5042767;28;20035;-66
2021/05/20 03:03:17;;;;;;;7.38;2.15;;;22.30;46.70;;;;;;5044813;28;20029;-64
2021/05/20 03:05:45;;;;;;;4.95;2.15;;;22.20;48.00;;;;;;5048108;28;20449;-69
2021/05/20 03:08:13;;;;;;;8.35;2.20;;;22.30;44.80;;;;;;5044541;28;20028;-64
2021/05/20 03:10:40;;;;;;;7.90;2.28;;;22.30;45.90;;;;;;5042508;28;20428;-73
2021/05/20 03:13:08;;;;;;;6.25;2.15;;;22.20;47.30;;;;;;5041884;28;20110;-69
2021/05/20 03:15:35;;;;;;;5.15;1.90;;;22.30;45.30;;;;;;5045628;28;20021;-70
2021/05/20 03:18:03;;;;;;;6.35;2.50;;;22.10;47.90;;;;;;5044108;28;20025;-63
2021/05/20 03:20:30;;;;;;;4.88;2.08;;;22.10;46.40;;;;;;5044067;28;20033;-65
2021/05/20 03:22:58;;;;;;;4.75;2.20;;;22.00;47.10;;;;;;5041147;28;20023;-63
2021/05/20 03:25:25;;;;;;;5.63;1.83;;;22.10;47.60;;;;;;5043101;28;20029;-71
2021/05/20 03:27:53;;;;;;;5.10;2.08;;;22.10;48.90;;;;;;5042689;28;20021;-63
2021/05/20 03:30:21;;;;;;;8.57;2.28;;;22.10;45.90;;;;;;5044435;28;20093;-72
2021/05/20 03:32:48;;;;;;;6.90;1.80;;;22.00;48.00;;;;;;5044940;28;20028;-62
2021/05/20 03:35:18;;;;;;;7.25;1.92;;;22.00;46.80;;;;;;5041192;28;20039;-72
2021/05/20 03:37:46;;;;;;;7.82;1.60;;;22.10;47.50;;;;;;5042642;28;20067;-68
2021/05/20 03:40:13;;;;;;;6.70;2.15;;;22.30;45.90;;;;;;5043285;28;20024;-67
2021/05/20 03:42:41;;;;;;;8.27;2.03;;;22.30;45.80;;;;;;5043033;28;20024;-64
2021/05/20 03:45:09;;;;;;;3.60;1.65;;;22.30;45.80;;;;;;5041043;28;20017;-65
2021/05/20 03:47:38;;;;;;;4.53;1.50;;;22.30;46.40;;;;;;5041857;28;20436;-71
2021/05/20 03:50:06;;;;;;;2.53;1.45;;;22.30;45.20;;;;;;5043325;28;20055;-65
2021/05/20 03:52:33;;;;;;;3.88;1.30;;;22.40;42.70;;;;;;5045282;28;20029;-67
2021/05/20 03:55:00;;;;;;;6.32;2.03;;;22.40;43.30;;;;;;5044214;28;20033;-65
2021/05/20 03:57:28;;;;;;;6.88;1.83;;;22.40;43.00;;;;;;5045550;28;20033;-64
2021/05/20 03:59:55;;;;;;;5.25;1.95;;;22.50;44.30;;;;;;5045039;28;20025;-70
2021/05/20 04:02:23;;;;;;;5.40;1.67;;;22.50;44.00;;;;;;5047332;28;20021;-64
2021/05/20 04:04:50;;;;;;;3.97;1.48;;;22.60;41.40;;;;;;5049889;28;20032;-73
2021/05/20 04:07:17;;;;;;;7.65;1.52;;;22.50;43.50;;;;;;5047092;28;20143;-63
2021/05/20 04:09:45;;;;;;;3.85;1.50;;;22.40;42.00;;;;;;5044624;28;20059;-64
2021/05/20 04:12:12;;;;;;;6.50;1.55;;;22.40;42.70;;;;;;5046002;28;20051;-64
2021/05/20 04:14:40;;;;;;;6.40;1.75;;;22.40;42.50;;;;;;5042521;28;20021;-74
2021/05/20 04:17:07;;;;;;;6.88;2.00;;;22.50;41.10;;;;;;5044101;28;20039;-62
2021/05/20 04:19:35;;;;;;;5.78;2.90;;;22.50;41.10;;;;;;5043628;28;20091;-64
2021/05/20 04:22:03;;;;;;;4.18;1.80;;;22.60;40.80;;;;;;5044426;28;20556;-64
2021/05/20 04:24:30;;;;;;;4.47;2.08;;;22.50;38.80;;;;;;5044427;28;20021;-75
2021/05/20 04:26:57;;;;;;;4.85;1.25;;;22.50;40.10;;;;;;5045862;28;20021;-75
2021/05/20 04:29:25;;;;;;;8.30;1.52;;;22.60;36.10;;;;;;5043638;28;20032;-70
2021/05/20 04:31:52;;;;;;;2.65;1.00;;;22.40;37.60;;;;;;5045545;28;20453;-72
2021/05/20 04:34:19;;;;;;;4.82;1.65;;;22.40;39.00;;;;;;5046244;28;20021;-66
2021/05/20 04:36:47;;;;;;;3.78;1.80;;;22.50;38.40;;;;;;5078032;28;20507;-74
2021/05/20 04:39:14;;;;;;;4.63;2.03;;;22.50;36.30;;;;;;5044435;28;20037;-69
2021/05/20 04:41:42;;;;;;;7.05;1.17;;;22.40;38.20;;;;;;5043398;28;20036;-64
2021/05/20 04:44:09;;;;;;;2.90;1.10;;;22.30;35.00;;;;;;5046576;28;20046;-74
2021/05/20 04:46:37;;;;;;;3.53;1.23;;;22.20;36.70;;;;;;5044789;28;20051;-73
2021/05/20 04:49:22;;;;;;;3.70;1.00;;;22.30;35.30;;;;;;5046981;28;20036;-64
2021/05/20 04:51:49;;;;;;;2.83;1.13;;;22.30;35.70;;;;;;5047015;28;20066;-65
2021/05/20 04:54:16;;;;;;;2.83;1.30;;;22.40;33.90;;;;;;5043735;28;20029;-65
2021/05/20 04:56:44;;;;;;;2.28;1.20;;;22.30;34.20;;;;;;5047505;28;20032;-76
2021/05/20 04:59:11;;;;;;;4.95;1.20;;;22.30;35.00;;;;;;5047231;28;20639;-65
2021/05/20 05:01:39;;;;;;;5.53;1.20;;;22.30;34.70;;;;;;5046456;28;20525;-64
2021/05/20 05:04:06;;;;;;;2.55;1.25;;;22.30;34.60;;;;;;5070910;28;20041;-65
2021/05/20 05:06:34;;;;;;;3.00;1.15;;;22.30;36.20;;;;;;5046636;28;20074;-65
2021/05/20 05:09:01;;;;;;;4.72;1.30;;;22.30;35.10;;;;;;5049723;28;20644;-63
2021/05/20 05:11:28;;;;;;;3.92;1.10;;;22.30;34.40;;;;;;5049256;28;20047;-65
2021/05/20 05:13:56;;;;;;;2.72;1.17;;;22.40;35.00;;;;;;5044779;28;20123;-65
2021/05/20 05:16:23;;;;;;;3.85;1.27;;;22.50;35.80;;;;;;5046260;28;20039;-65
2021/05/20 05:18:51;;;;;;;2.00;1.30;;;22.60;34.80;;;;;;5045594;28;20084;-69
2021/05/20 05:21:18;;;;;;;2.92;1.13;;;22.70;34.20;;;;;;5045392;28;20178;-64
2021/05/20 05:23:46;;;;;;;3.53;1.23;;;22.80;35.50;;;;;;5046384;28;20167;-74
2021/05/20 05:26:13;;;;;;;5.03;1.35;;;22.90;33.60;;;;;;5046767;28;20112;-68
2021/05/20 05:28:41;;;;;;;6.07;1.75;;;22.90;34.40;;;;;;5045996;28;20066;-62
2021/05/20 05:31:13;;;;;;;5.30;1.58;;;23.00;34.50;;;;;;5046942;28;20020;-62
2021/05/20 05:33:40;;;;;;;4.57;1.65;;;23.10;35.80;;;;;;5045403;28;20052;-61
2021/05/20 05:36:08;;;;;;;6.35;1.23;;;23.30;36.00;;;;;;5046783;28;20029;-71
2021/05/20 05:38:35;;;;;;;2.00;1.05;;;23.50;34.80;;;;;;5045334;28;20024;-72
2021/05/20 05:41:03;;;;;;;5.38;1.63;;;23.50;33.80;;;;;;5044094;28;20092;-73
2021/05/20 05:43:30;;;;;;;5.43;1.98;;;23.40;34.70;;;;;;5042572;28;20032;-63
2021/05/20 05:45:58;;;;;;;2.15;1.20;;;23.30;34.50;;;;;;5041578;28;20149;-72
2021/05/20 05:48:26;;;;;;;4.75;1.90;;;23.40;35.70;;;;;;5042165;28;20090;-63
2021/05/20 05:50:56;;;;;;;4.28;1.48;;;23.30;34.40;;;;;;5061527;28;20029;-72
2021/05/20 05:53:24;;;;;;;2.75;1.63;;;23.10;34.90;;;;;;5043981;28;20032;-64
2021/05/20 05:55:52;;;;;;;2.72;1.30;;;22.50;36.10;;;;;;5044868;28;20087;-69
2021/05/20 05:58:20;;;;;;;4.10;1.67;;;22.10;37.80;;;;;;5045433;28;20036;-72
2021/05/20 06:00:47;;;;;;;1.75;1.02;;;21.70;39.20;;;;;;4694380;28;9999740;-64
2021/05/20 06:03:22;;;;;;;4.57;1.52;;;21.60;39.30;;;;;;5041683;28;20033;-69
2021/05/20 06:05:50;;;;;;;2.22;1.08;;;21.40;38.50;;;;;;5042019;28;20021;-70
2021/05/20 06:08:19;;;;;;;3.88;1.38;;;21.40;39.70;;;;;;5043165;28;20021;-70
2021/05/20 06:10:47;;;;;;;4.07;1.48;;;21.30;38.70;;;;;;5041532;28;20465;-62
2021/05/20 06:13:15;;;;;;;4.45;1.10;;;21.30;39.10;;;;;;5036052;28;20024;-63
2021/05/20 06:15:43;;;;;;;5.50;1.77;;;21.20;38.80;;;;;;5040469;28;20082;-69
2021/05/20 06:18:10;;;;;;;4.32;1.50;;;21.10;39.50;;;;;;5041197;28;20036;-70
2021/05/20 06:20:38;;;;;;;3.63;1.40;;;21.10;40.70;;;;;;5040159;28;20421;-74
2021/05/20 06:23:07;;;;;;;2.33;1.33;;;21.30;40.60;;;;;;5041204;28;20385;-64
2021/05/20 06:25:34;;;;;;;2.45;1.30;;;21.30;41.20;;;;;;5041067;28;20651;-65
2021/05/20 06:28:06;;;;;;;2.83;1.20;;;21.20;40.70;;;;;;5040793;28;20370;-65
2021/05/20 06:30:35;;;;;;;2.00;1.40;;;21.10;40.70;;;;;;5035371;28;20083;-65
2021/05/20 06:33:02;;;;;;;4.13;1.35;;;21.00;42.50;;;;;;5038181;28;20086;-62
2021/05/20 06:35:30;;;;;;;2.35;1.52;;;21.10;42.60;;;;;;5044006;28;20653;-63
2021/05/20 06:37:57;;;;;;;2.58;1.35;;;21.20;43.40;;;;;;5036874;28;20069;-63
2021/05/20 06:40:24;;;;;;;2.45;1.27;;;21.40;41.80;;;;;;5039928;28;20035;-63
2021/05/20 06:42:52;;;;;;;2.95;1.30;;;21.30;43.40;;;;;;5040802;28;20577;-62
2021/05/20 06:45:19;;;;;;;2.33;1.45;;;21.00;44.30;;;;;;5042575;28;20040;-69
2021/05/20 06:47:51;;;;;;;4.50;1.60;;;20.60;45.40;;;;;;5040125;28;20056;-70
2021/05/20 06:50:18;;;;;;;2.30;1.50;;;20.20;45.30;;;;;;5038982;28;20155;-62
2021/05/20 06:52:46;;;;;;;2.47;1.70;;;19.80;47.30;;;;;;5043333;28;20037;-64
2021/05/20 06:55:13;;;;;;;3.97;1.58;;;19.60;46.00;;;;;;5043506;28;20619;-70
2021/05/20 07:00:26;;;;;;;7.88;2.00;;;19.20;48.80;;;;;;5042983;28;20563;-69
2021/05/20 07:02:54;;;;;;;2.63;1.77;;;19.00;47.90;;;;;;5045938;28;20087;-71
2021/05/20 07:05:22;;;;;;;3.63;1.83;;;18.80;49.50;;;;;;5041345;28;20063;-63
2021/05/20 07:07:49;;;;;;;5.43;1.98;;;18.50;50.00;;;;;;5041654;28;20021;-63
2021/05/20 07:10:17;;;;;;;3.45;2.30;;;18.30;50.90;;;;;;5040471;28;20029;-62
2021/05/20 07:12:45;;;;;;;3.22;1.70;;;18.10;52.10;;;;;;5040463;28;20342;-69
2021/05/20 07:15:13;;;;;;;8.20;1.80;;;17.90;52.90;;;;;;5043973;28;20040;-70
2021/05/20 07:17:40;;;;;;;2.60;1.73;;;17.70;53.60;;;;;;5044335;28;20475;-61
2021/05/20 07:20:09;;;;;;;4.75;1.83;;;17.50;54.50;;;;;;5042987;28;20682;-63
2021/05/20 07:22:37;;;;;;;5.03;2.00;;;17.30;55.50;;;;;;5040747;28;20028;-72
2021/05/20 07:25:05;;;;;;;4.28;1.63;;;17.10;55.80;;;;;;5037461;28;20033;-63
2021/05/20 07:27:33;;;;;;;4.65;2.65;;;17.00;56.10;;;;;;5040288;28;20030;-68
2021/05/20 07:30:01;;;;;;;5.22;2.38;;;16.90;56.40;;;;;;5042588;28;20029;-61
2021/05/20 07:32:30;;;;;;;5.60;2.63;;;16.80;56.90;;;;;;5039052;28;20029;-62
2021/05/20 07:34:58;;;;;;;6.95;2.40;;;16.80;57.60;;;;;;5043591;28;20024;-72
2021/05/20 07:37:26;;;;;;;3.42;2.35;;;16.70;58.20;;;;;;5043581;28;20025;-70
2021/05/20 07:39:53;;;;;;;3.85;2.40;;;16.50;58.20;;;;;;5044996;28;20033;-63
2021/05/20 07:42:20;;;;;;;4.68;2.50;;;16.30;58.60;;;;;;5046116;28;20100;-63
2021/05/20 07:44:53;;;;;;;5.45;2.10;;;16.10;58.00;;;;;;5076532;28;20017;-69
2021/05/20 07:47:22;;;;;;;3.85;2.70;;;16.00;59.00;;;;;;5044091;28;20025;-63
2021/05/20 07:49:49;;;;;;;6.43;3.20;;;15.80;58.10;;;;;;5045062;28;20409;-64
2021/05/20 07:52:18;;;;;;;2.85;1.73;;;15.80;57.80;;;;;;5044901;28;20142;-62
2021/05/20 07:54:45;;;;;;;5.93;3.78;;;15.70;58.00;;;;;;5045516;28;20025;-62
2021/05/20 07:57:13;;;;;;;5.68;2.60;;;15.70;57.40;;;;;;5045776;28;20025;-63
2021/05/20 07:59:40;;;;;;;4.13;2.03;;;15.70;57.30;;;;;;5045282;28;20090;-70
2021/05/20 08:05:07;;;;;;;4.20;2.92;;;15.60;56.90;;;;;;5044375;28;20025;-64
2021/05/20 08:12:35;;;;;;;5.07;3.22;;;15.60;55.60;;;;;;5045332;28;20029;-63
2021/05/20 08:15:04;;;;;;;4.50;2.50;;;15.50;56.30;;;;;;5043872;28;20033;-63
2021/05/20 08:17:31;;;;;;;6.95;2.78;;;15.40;56.50;;;;;;5044357;28;20033;-71
2021/05/20 08:19:59;;;;;;;5.25;2.60;;;15.30;57.80;;;;;;5045573;28;20045;-63
2021/05/20 08:22:26;;;;;;;5.95;2.25;;;15.20;58.10;;;;;;5043089;28;20021;-69
2021/05/20 08:24:54;;;;;;;5.80;2.47;;;15.10;58.20;;;;;;5044759;28;20068;-64
2021/05/20 08:27:21;;;;;;;4.03;2.08;;;14.90;58.60;;;;;;5044904;28;20075;-63
2021/05/20 08:29:49;;;;;;;5.50;2.63;;;14.80;59.00;;;;;;5046680;28;20040;-71
2021/05/20 08:32:17;;;;;;;4.25;2.33;;;14.60;59.50;;;;;;5045899;28;20029;-71
2021/05/20 08:34:44;;;;;;;5.65;2.25;;;14.50;60.00;;;;;;5041562;28;20452;-71
2021/05/20 08:37:11;;;;;;;4.43;2.30;;;14.50;60.60;;;;;;5042357;28;20377;-69
2021/05/20 08:39:39;;;;;;;5.70;2.13;;;14.50;59.50;;;;;;5042873;28;20457;-68
2021/05/20 08:42:07;;;;;;;6.10;2.45;;;14.50;59.30;;;;;;5043225;28;20262;-67
2021/05/20 08:44:34;;;;;;;4.00;2.47;;;14.40;59.80;;;;;;5043635;28;20148;-76
2021/05/20 08:47:02;;;;;;;5.07;2.42;;;14.20;59.80;;;;;;5044980;28;20058;-67
2021/05/20 08:49:30;;;;;;;11.13;2.28;;;14.20;60.20;;;;;;5044944;28;20094;-77
2021/05/20 08:51:58;;;;;;;4.03;2.20;;;14.20;60.00;;;;;;5071931;28;20459;-66
2021/05/20 08:54:26;;;;;;;7.47;2.42;;;14.10;60.30;;;;;;5040927;28;20039;-75
2021/05/20 08:56:57;;;;;;;7.97;2.38;;;14.00;59.80;;;;;;5039761;28;20128;-74
2021/05/20 08:59:26;;;;;;;4.28;2.30;;;14.00;60.30;;;;;;5076710;28;20067;-64
2021/05/20 09:01:54;;;;;;;8.68;2.70;;;13.90;60.90;;;;;;5044838;28;20037;-72
2021/05/20 09:04:26;;;;;;;5.30;2.42;;;13.90;61.20;;;;;;5045092;28;20032;-73
2021/05/20 09:07:02;;;;;;;5.30;2.30;;;13.80;61.90;;;;;;5046263;28;20461;-74
2021/05/20 09:09:36;;;;;;;6.90;3.25;;;13.70;62.30;;;;;;5044695;28;20286;-71
2021/05/20 09:12:05;;;;;;;4.00;2.55;;;13.60;62.70;;;;;;5045628;28;20216;-70
2021/05/20 09:14:37;;;;;;;5.93;2.70;;;13.60;63.10;;;;;;5042042;28;20448;-73
2021/05/20 09:17:18;;;;;;;5.50;2.72;;;13.50;63.20;;;;;;5042669;28;20026;-69
2021/05/20 09:19:59;;;;;;;3.35;2.03;;;13.40;63.70;;;;;;5045760;28;20056;-70
2021/05/20 09:22:28;;;;;;;5.18;2.70;;;13.30;64.00;;;;;;5044225;28;20028;-70
2021/05/20 09:25:00;;;;;;;5.35;2.63;;;13.30;64.50;;;;;;5046761;28;20425;-71
2021/05/20 09:27:31;;;;;;;7.63;2.70;;;13.30;64.80;;;;;;5049829;28;20017;-64
2021/05/20 09:30:12;;;;;;;5.93;2.45;;;13.30;64.10;;;;;;5050789;28;20052;-69
2021/05/20 09:32:46;;;;;;;6.03;2.72;;;13.20;64.00;;;;;;5047056;28;20090;-69
2021/05/20 09:35:14;;;;;;;4.35;2.50;;;13.10;64.20;;;;;;5044668;28;20029;-71
2021/05/20 09:38:12;;;;;;;7.13;2.40;;;13.00;64.50;;;;;;5042457;28;20145;-74
2021/05/20 09:40:42;;;;;;;6.57;3.35;;;13.00;65.10;;;;;;5013903;28;20071;-67
2021/05/20 09:43:33;;;;;;;4.68;2.65;;;12.90;65.30;;;;;;5042397;28;20120;-66
2021/05/20 09:46:01;;;;;;;7.57;2.65;;;12.90;65.20;;;;;;5048625;28;20031;-68
2021/05/20 09:48:35;;;;;;;14.68;2.97;;;12.90;64.40;;;;;;5050260;28;20368;-70
2021/05/20 09:51:05;;;;;;;14.63;3.35;;;13.00;63.70;;;;;;5048279;28;20024;-66
2021/05/20 09:53:43;;;;;;;8.82;3.38;;;13.20;62.50;;;;;;5048303;28;20472;-77
2021/05/20 09:56:11;;;;;;;10.88;2.80;;;13.20;63.20;;;;;;5051214;28;20020;-74
2021/05/20 09:58:39;;;;;;;7.10;2.75;;;13.20;60.10;;;;;;5053735;28;20111;-66
2021/05/20 10:01:20;;;;;;;9.20;3.08;;;13.20;61.10;;;;;;5046461;28;20120;-72
2021/05/20 10:03:55;;;;;;;10.73;2.78;;;13.20;60.40;;;;;;5047679;28;20028;-66
2021/05/20 10:06:43;;;;;;;6.28;2.42;;;13.20;59.10;;;;;;5050116;28;20158;-66
2021/05/20 10:09:12;;;;;;;4.95;2.33;;;13.30;58.50;;;;;;5049893;28;20699;-65
2021/05/20 10:11:42;;;;;;;7.72;2.67;;;13.40;58.30;;;;;;5048740;28;20070;-71
2021/05/20 10:14:10;;;;;;;5.28;2.95;;;13.30;58.40;;;;;;5042745;28;20038;-70
2021/05/20 10:16:39;;;;;;;8.45;2.50;;;13.30;58.60;;;;;;5045721;28;20036;-67
2021/05/20 10:19:07;;;;;;;7.30;2.28;;;13.30;60.50;;;;;;5046209;28;20350;-71
2021/05/20 10:21:35;;;;;;;9.10;2.33;;;13.20;61.40;;;;;;5045172;28;20036;-71
2021/05/20 10:24:05;;;;;;;5.88;2.67;;;13.10;61.20;;;;;;5046590;28;20396;-65
2021/05/20 10:26:41;;;;;;;7.10;2.53;;;13.00;61.60;;;;;;5040984;28;20094;-70
2021/05/20 10:29:08;;;;;;;7.47;2.58;;;13.00;61.70;;;;;;5040721;28;20021;-65
2021/05/20 10:31:36;;;;;;;16.65;9.70;;;13.00;62.40;;;;;;5041314;28;20025;-71
2021/05/20 10:34:07;;;;;;;11.50;6.10;;;12.90;62.30;;;;;;5042184;28;20041;-65
2021/05/20 10:36:34;;;;;;;17.20;9.20;;;12.90;61.20;;;;;;5039315;28;20524;-64
2021/05/20 10:39:22;;;;;;;13.38;5.82;;;12.90;60.90;;;;;;5037366;28;20055;-68
2021/05/20 10:41:50;;;;;;;8.85;4.63;;;12.90;61.50;;;;;;5042247;28;20033;-65
2021/05/20 10:44:19;;;;;;;7.60;3.47;;;12.90;62.30;;;;;;5042659;28;20021;-69
2021/05/20 10:47:03;;;;;;;7.25;3.08;;;12.80;61.50;;;;;;5040523;28;20032;-69
2021/05/20 10:49:52;;;;;;;6.35;2.85;;;12.80;61.90;;;;;;5042801;28;20490;-69
2021/05/20 10:52:38;;;;;;;7.47;3.17;;;12.90;62.90;;;;;;5043193;28;20056;-68
2021/05/20 10:55:08;;;;;;;9.20;2.83;;;12.80;62.20;;;;;;5041303;28;20047;-69
2021/05/20 10:58:01;;;;;;;7.40;2.50;;;12.80;62.60;;;;;;5042411;28;20040;-64
2021/05/20 11:00:36;;;;;;;11.18;3.65;;;12.90;62.80;;;;;;5041841;28;20048;-66
2021/05/20 11:03:09;;;;;;;9.82;3.22;;;12.80;61.20;;;;;;5043749;28;20128;-64
2021/05/20 11:05:43;;;;;;;13.60;3.58;;;12.80;61.90;;;;;;5042953;28;20021;-72
2021/05/20 11:08:36;;;;;;;9.48;3.30;;;12.80;61.60;;;;;;5045602;28;20029;-65
2021/05/20 11:11:06;;;;;;;9.13;2.72;;;12.90;60.70;;;;;;5043987;28;20398;-65
2021/05/20 11:13:41;;;;;;;14.23;3.42;;;12.90;61.40;;;;;;5045835;28;20035;-65
2021/05/20 11:16:20;;;;;;;13.30;3.53;;;12.80;62.10;;;;;;5044273;28;20489;-65
2021/05/20 11:18:49;;;;;;;12.07;3.38;;;12.70;62.20;;;;;;5036613;28;20029;-65
2021/05/20 11:21:17;;;;;;;9.52;4.20;;;12.60;62.60;;;;;;5041633;28;20032;-73
2021/05/20 11:23:45;;;;;;;20.65;5.80;;;12.60;63.20;;;;;;5042912;28;20740;-65
2021/05/20 11:26:16;;;;;;;18.95;8.73;;;12.60;63.50;;;;;;5042916;28;20036;-73
2021/05/20 11:28:58;;;;;;;10.32;7.10;;;12.60;63.90;;;;;;5042706;28;20021;-66
2021/05/20 11:31:28;;;;;;;18.43;4.90;;;12.60;64.10;;;;;;5045165;28;20448;-71
2021/05/20 11:36:48;;;;;;;20.08;6.38;;;12.50;64.50;;;;;;5043133;28;20032;-66
2021/05/20 11:39:18;;;;;;;9.95;3.55;;;12.40;65.20;;;;;;5043063;28;20025;-65
2021/05/20 11:41:47;;;;;;;15.65;3.97;;;12.30;65.60;;;;;;5041779;28;20149;-66
2021/05/20 11:44:20;;;;;;;14.98;3.22;;;12.40;65.60;;;;;;5042950;28;20412;-71
2021/05/20 11:47:11;;;;;;;7.35;3.72;;;12.30;66.90;;;;;;5041454;28;20029;-66
2021/05/20 11:49:39;;;;;;;8.35;2.92;;;12.30;66.90;;;;;;5042795;28;20024;-66
2021/05/20 11:52:09;;;;;;;8.63;3.00;;;12.10;68.00;;;;;;5043654;28;20489;-74
2021/05/20 11:54:49;;;;;;;7.00;2.45;;;12.10;67.90;;;;;;5040382;28;20167;-73
2021/05/20 11:57:24;;;;;;;6.85;2.45;;;12.00;67.90;;;;;;5041383;28;20056;-66
2021/05/20 12:02:43;;;;;;;7.30;2.83;;;12.00;68.70;;;;;;5041059;28;20090;-66
2021/05/20 12:05:13;;;;;;;5.25;2.60;;;11.90;68.60;;;;;;5040406;28;20024;-72
2021/05/20 12:07:42;;;;;;;4.85;2.25;;;11.90;68.70;;;;;;5042519;28;20017;-66
2021/05/20 12:10:21;;;;;;;7.43;2.72;;;11.80;69.00;;;;;;5040846;28;20036;-72
2021/05/20 12:13:07;;;;;;;6.68;2.88;;;11.80;69.50;;;;;;5038719;28;20575;-69
2021/05/20 12:15:34;;;;;;;3.00;2.35;;;11.80;69.50;;;;;;5042844;28;20075;-74
2021/05/20 12:18:02;;;;;;;7.80;2.20;;;11.80;69.20;;;;;;5042136;28;20095;-74
2021/05/20 12:20:30;;;;;;;9.25;2.40;;;11.70;69.70;;;;;;5045896;28;20373;-75
2021/05/20 12:22:58;;;;;;;10.15;2.40;;;11.70;69.80;;;;;;5045147;28;20104;-67
2021/05/20 12:25:27;;;;;;;4.85;2.10;;;11.70;70.40;;;;;;5043671;28;20033;-72
2021/05/20 12:27:57;;;;;;;5.45;2.60;;;11.60;70.70;;;;;;5045307;28;20036;-71
2021/05/20 12:30:28;;;;;;;3.45;2.03;;;11.60;71.60;;;;;;5044955;28;20654;-65
2021/05/20 12:33:08;;;;;;;5.38;2.25;;;11.40;71.90;;;;;;5044996;28;20120;-65
2021/05/20 12:35:38;;;;;;;7.43;2.08;;;11.40;72.50;;;;;;5042621;28;20199;-65
2021/05/20 12:38:12;;;;;;;4.88;2.45;;;11.40;72.90;;;;;;5042341;28;20097;-65
2021/05/20 12:40:43;;;;;;;6.72;2.05;;;11.30;73.10;;;;;;5045919;28;20424;-70
2021/05/20 12:43:20;;;;;;;7.30;2.22;;;11.20;73.70;;;;;;5046266;28;20032;-64
2021/05/20 12:45:55;;;;;;;7.20;2.30;;;11.20;73.90;;;;;;5045702;28;20392;-71
2021/05/20 12:48:42;;;;;;;4.32;2.30;;;11.10;74.60;;;;;;5046421;28;20035;-65
2021/05/20 12:51:19;;;;;;;5.43;2.67;;;11.00;74.80;;;;;;5046612;28;20017;-73
2021/05/20 12:53:53;;;;;;;5.75;2.13;;;10.90;74.80;;;;;;5046099;28;20346;-65
2021/05/20 12:56:27;;;;;;;4.57;2.25;;;11.00;75.10;;;;;;5045257;28;20550;-71
2021/05/20 12:59:05;;;;;;;4.97;2.30;;;10.90;75.40;;;;;;5040944;28;20060;-72
2021/05/20 13:01:50;;;;;;;7.10;2.70;;;10.80;75.50;;;;;;5046185;28;20100;-71
2021/05/20 13:04:30;;;;;;;6.63;3.80;;;10.80;76.10;;;;;;5041197;28;20492;-64
2021/05/20 13:07:09;;;;;;;7.25;4.47;;;10.60;77.30;;;;;;5044880;28;20028;-72
2021/05/20 13:10:02;;;;;;;4.38;3.50;;;10.60;77.50;;;;;;5039671;28;20100;-65
2021/05/20 13:12:40;;;;;;;;;;;10.50;77.50;;;;;;5056516;28;20404;-71
2021/05/20 13:15:17;;;;;;;6.50;2.85;;;10.50;77.60;;;;;;5060778;28;19966;-65